Aviation Digital Data Service (ADDS)

Output produced by METARs form (0857 UTC 25 July 2014)
found at http://www.aviationweather.gov/adds/metars/
 
KBMI 250520Z 2506/2606 13005KT P6SM SCT250 
     FM251500 20012KT P6SM VCSH SCT050 BKN120 
     FM251800 20012KT P6SM BKN100 
     FM260000 16010KT P6SM VCSH SCT050 BKN100